Tiempo atmosférico en la estación meteorológica de Ávila, Ávila (1130 m.)



Fecha
DESCASC
Temp. máxima en grados centígrados (hora)
DESCASC
Temp. mínima en grados centígrados (hora)
DESCASC
Temp. media en grados centígrados
DESCASC
Racha de viento máxima en m/sg (hora)
DESCASC
Velocidad máxima media en intervalos de 10 minutos(hora)
DESCASC
Precipitaciones diarias en mm
DESCASC
Precipitaciones de 00:00 a 06:00 en mm
DESCASC
Precipitaciones de 06:00 a 12:00 en mm
DESCASC
Precipitaciones de 12:00 a 18:00 en mm
DESCASC
Precipitaciones de 18:00 a 24:00 en mm
DESCASC
18-01-2018 14.4 (14:40) -1.5 (05:30) 6.4 5 (15:30) 3.33 (15:30) 0 0 0 0 0
17-01-2018 8.9 (16:40) 0.1 (23:50) 4.5 7.5 (12:00) 5.28 (11:30) 0 0 0 0 0
16-01-2018 11.5 (14:20) 3.6 (22:00) 7.5 8.33 (13:00) 5.28 (12:10) 0 0 0 0 0
15-01-2018 7.7 (15:50) -5.7 (06:00) 1 4.44 (16:50) 2.78 (16:50) 0 0 0 0 0
14-01-2018 2.2 (15:20) -2.5 (-00:0) -0.1 5.56 (13:40) 3.61 (20:20) 0.2 0 0 0 0.2
13-01-2018 2.1 (04:10) -0.5 (-00:0) 0.8 8.06 (11:50) 4.72 (12:30) 2.2 0 0.4 1.8 0
12-01-2018 6.1 (16:00) -5.3 (-00:0) 0.4 5.83 (00:10) 3.33 (00:10) 0 0 0 0 0
11-01-2018 4.3 (16:00) -0.4 (00:00) 2 14.72 (07:50) 8.89 (07:50) 0 0 0 0 0
10-01-2018 7.5 (13:20) 0.8 (00:00) 4.2 13.33 (20:00) 7.78 (20:00) 0 0 0 0 0
09-01-2018 2.5 (22:40) -11.4 (-00:0) -4.4 10.28 (14:10) 6.11 (13:50) 0 0 0 0 0
08-01-2018 3.1 (16:00) -8.3 (-00:0) -2.6 7.78 (00:10) 4.44 (00:10) 0 0 0 0 0
07-01-2018 0.4 (13:50) -1.5 (-00:0) -0.5 10.28 (02:40) 6.11 (00:10) 18.4 7.2 8 3 0.2
06-01-2018 0.5 (00:00) -1.1 (-00:0) -0.3 12.5 (19:00) 7.5 (22:00) 20.6 4.2 2.4 7.6 6.4
05-01-2018 10.2 (11:30) 0.5 (00:00) 5.3 9.17 (15:50) 5 (11:40) 12.6 0 0 1.2 11.4
04-01-2018 12.6 (14:30) 5.5 (23:59) 9.1 9.72 (16:00) 6.67 (15:40) 0 0 0 0 0
03-01-2018 14.8 (14:40) 8.6 (00:00) 11.7 9.44 (15:10) 5.56 (15:10) 0 0 0 0 0
02-01-2018 11.5 (13:30) 4.3 (00:00) 7.9 11.11 (15:50) 6.67 (06:20) 0 0 0 0 0
01-01-2018 8.1 (14:40) 0.3 (00:00) 4.2 11.39 (12:30) 5.83 (12:30) 0 0 0 0 0
31-12-2017 11.4 (14:10) 2.4 (00:00) 6.9 20.83 (16:30) 8.89 (16:30) 0.2 0 0 0.2 0
30-12-2017 12.5 (15:10) 2.9 (00:00) 7.7 5.83 (10:50) 3.61 (10:50) 0 0 0 0 0
29-12-2017 12.1 (14:20) 6.4 (00:00) 9.3 12.22 (13:40) 6.67 (14:20) 0 0 0 0 0
28-12-2017 11.1 (13:50) 3.6 (00:00) 7.4 17.5 (14:00) 10 (14:00) 1 0.8 0.2 0 0
27-12-2017 6.4 (00:00) 1.7 (00:00) 4.1 18.89 (03:30) 10.56 (03:30) 3.8 3.6 0 0 0.2
26-12-2017 6.8 (23:30) 0.8 (00:00) 3.8 16.39 (23:20) 6.94 (23:50) 0.8 0.2 0 0.2 0.4
25-12-2017 7.8 (13:20) -1.6 (-00:0) 3.1 8.61 (13:00) 5.28 (13:00) 0 0 0 0 0
24-12-2017 11.2 (15:00) 0.4 (00:00) 5.8 9.44 (02:20) 5.28 (02:30) 0 0 0 0 0

Gráficas

Temp. máximas Temp. mínimas Temp. medias Precipitaciones Rachas de viento máximas Velocidades máximas media en intervalos de 10 minutos

Datos horarios

Fecha y hora oficial Temperatura (ºC) Velocidad del viento (km/h) Dirección del viento Racha (km/h) Dirección de racha Precipitación (mm) Presión (hPa) Tendencia (hPa) Humedad (%)
2018-01-22 23:00:00 2.4 0 Calma 8 Sur 0 899.8 0.2 95
2018-01-22 22:00:00 3.3 0 Calma 5 Sur 0 899.9 0.6 94
2018-01-22 21:00:00 4.6 4 Sudeste 10 Nordeste 0 899.8 1 95
2018-01-22 20:00:00 5.4 6 Nordeste 13 Norte 0 899.6 1.1 91
2018-01-22 19:00:00 6.5 10 Norte 15 Norte 0 899.3 0.5 86
2018-01-22 18:00:00 9.4 9 Norte 12 Norte 0 898.8 0.2 73
2018-01-22 17:00:00 10.1 4 Este 21 Norte 0 898.5 -0.6 68
2018-01-22 16:00:00 9.1 17 Norte 26 Norte 0 898.8 -0.8 74
2018-01-22 15:00:00 9.3 18 Norte 28 Norte 0 898.6 -1.7 72
2018-01-22 14:00:00 9.5 14 Norte 22 Norte 0 899.1 -1.7 72
2018-01-22 13:00:00 6.7 6 Sudoeste 11 Sudoeste 0 899.6 -0.9 83
2018-01-22 12:00:00 4.2 4 Sudoeste 11 Nordeste 0 900.3 0.3 97
2018-01-22 11:00:00 3.5 4 Norte 10 Nordeste 0 900.8 0.9 100
2018-01-22 10:00:00 2.7 5 Nordeste 8 Nordeste 0 900.5 0.9 100
2018-01-22 09:00:00 2.7 2 Sudoeste 8 Sudoeste 0 900 0.3 100
2018-01-22 08:00:00 3.1 5 Noroeste 8 Noroeste 0 899.9 0.1 100
2018-01-22 07:00:00 3.6 5 Oeste 13 Oeste 0 899.6 -0.2 100
2018-01-22 06:00:00 4.1 6 Norte 10 Norte 0 899.7 -0.2 100
2018-01-22 05:00:00 3 0 Calma 6 Sudeste 0 899.8 -0.4 100
2018-01-22 04:00:00 2.7 4 Sudeste 10 Sudeste 0 899.8 -1 100
2018-01-22 03:00:00 3.5 7 Sur 10 Sudoeste 0 899.9 -0.9 100
2018-01-22 02:00:00 3.6 5 Sur 9 Sudeste 0 900.2 -0.7 100
2018-01-22 01:00:00 4.1 3 Este 10 Nordeste 0 900.8 0 100
2018-01-22 00:00:00 4.6 6 Este 9 Este 0 900.8 0 100
2018-01-21 23:00:00 4.9 4 Nordeste 9 Nordeste 0 900.9 0.3 100
2018-01-21 22:00:00 5 6 Norte 11 Norte 0 900.8 0.4 100
2018-01-21 21:00:00 5.3 4 Noroeste 11 Norte 0 900.8 0.5 99
2018-01-21 20:00:00 5.5 5 Norte 9 Norte 0 900.6 0.5 98
2018-01-21 19:00:00 6.1 6 Norte 15 Norte 0 900.4 0.3 95
2018-01-21 18:00:00 6.6 8 Norte 22 Norte 0 900.3 0.3 91
2018-01-21 17:00:00 7.7 15 Norte 22 Norte 0 900.1 -0.5 85
2018-01-21 16:00:00 8.1 10 Nordeste 20 Nordeste 0 900.1 -0.9 84
2018-01-21 15:00:00 8.5 12 Nordeste 21 Norte 0 900 -1.2 81
2018-01-21 14:00:00 9 13 Norte 21 Norte 0 900.6 -0.6 81
2018-01-21 13:00:00 9 13 Norte 23 Norte 0 901 0 81
2018-01-21 12:00:00 9.3 11 Norte 18 Norte 0 901.2 0.5 77
2018-01-21 11:00:00 7.5 4 Oeste 11 Norte 0 901.2 1 82
2018-01-21 10:00:00 5 8 Norte 17 Noroeste 0 901 1.3 95
2018-01-21 09:00:00 4.8 4 Noroeste 14 Noroeste 0 900.7 1.3 96
2018-01-21 08:00:00 4.3 0 Calma 8 Sudoeste 0 900.2 0.8 96
2018-01-21 07:00:00 3.9 2 Norte 15 Noroeste 0 899.7 0.3 95
2018-01-21 06:00:00 4.2 5 Oeste 21 Oeste 0 899.4 0.1 95
2018-01-21 05:00:00 4.3 15 Noroeste 36 Norte 0 899.4 -0.4 97
2018-01-21 04:00:00 3.4 5 Nordeste 16 Sudoeste 0 899.4 -0.6 94
2018-01-21 03:00:00 4.2 7 Sudoeste 18 Noroeste 0 899.3 -0.7 93
2018-01-21 02:00:00 5.2 10 Oeste 18 Noroeste 0 899.8 0 90
2018-01-21 01:00:00 5.6 6 Noroeste 12 Oeste 0 900 0.6 90
2018-01-21 00:00:00 5.5 9 Noroeste 17 Noroeste 0 900 0.7 89
2018-01-20 23:00:00 5.6 6 Oeste 14 Oeste 0 899.8 1 84
2018-01-20 22:00:00 6.4 8 Sudoeste 24 Noroeste 0 899.4 1 77
2018-01-20 21:00:00 6.9 7 Noroeste 21 Oeste 0 899.3 1.3 74
2018-01-20 20:00:00 7.1 8 Oeste 14 Oeste 0 898.8 1.5 71
2018-01-20 19:00:00 8 9 Noroeste 19 Noroeste 0 898.4 1.5 68
2018-01-20 18:00:00 9.9 14 Noroeste 26 Noroeste 0 898 1.3 56
2018-01-20 17:00:00 12 12 Oeste 27 Oeste 0 897.3 -0.2 46
2018-01-20 16:00:00 12.3 16 Oeste 31 Oeste 0 896.9 -1.1 43
2018-01-20 15:00:00 12.1 16 Oeste 29 Oeste 0 896.7 -1.6 42
2018-01-20 14:00:00 11.3 21 Oeste 37 Oeste 0 897.5 -0.6 43
2018-01-20 13:00:00 10.7 17 Oeste 30 Noroeste 0 898 0.2 44
2018-01-20 12:00:00 10.3 13 Oeste 23 Oeste 0 898.3 1 30
2018-01-20 11:00:00 7.4 2 Sudoeste 12 Sudoeste 0 898.1 0.9 40
2018-01-20 10:00:00 4.1 6 Oeste 14 Oeste 0 897.8 1.2 49
2018-01-20 09:00:00 1.7 7 Oeste 14 Oeste 0 897.3 0.7 60
2018-01-20 08:00:00 0.6 0 Calma 9 Oeste 0 897.2 0.6 77
2018-01-20 07:00:00 0.8 3 Sudoeste 12 Oeste 0 896.6 -0.3 84
2018-01-20 06:00:00 0.4 3 Sur 14 Sudeste 0 896.6 -0.3 91
2018-01-20 05:00:00 0.4 5 Sudeste 11 Sudeste 0 896.6 0.1 94
2018-01-20 04:00:00 0.5 3 Este 7 Nordeste 0 896.9 -0.3 94
2018-01-20 03:00:00 0.5 4 Este 5 Este 0 896.9 0.1 94
2018-01-20 02:00:00 0.9 0 Calma 6 Sudoeste 0 896.5 -0.3 94
2018-01-20 01:00:00 1.4 3 Sudoeste 9 Sudoeste 0 897.2 1 93
2018-01-20 00:00:00 2.3 6 Sudoeste 12 Sudoeste 0 896.8 0.7 90
2018-01-19 23:00:00 2 0 Calma 11 Sur 0 896.8 1.3 91
2018-01-19 22:00:00 2.2 2 Sur 6 Sur 0 896.2 1 90
2018-01-19 21:00:00 3.5 0 Calma 13 Oeste 0 896.1 1.7 89
2018-01-19 20:00:00 4.5 6 Noroeste 13 Norte 0 895.5 1.9 87
2018-01-19 19:00:00 6 10 Noroeste 19 Norte 0 895.2 1.7 81
2018-01-19 18:00:00 7.6 14 Noroeste 23 Noroeste 0 894.4 1.3 73
2018-01-19 17:00:00 8.9 15 Noroeste 26 Norte 0 893.6 0.1 67
2018-01-19 16:00:00 9.5 17 Noroeste 25 Oeste 0 893.5 -0.7 62
2018-01-19 15:00:00 9.2 15 Noroeste 23 Noroeste 0 893.1 -1.1 64
2018-01-19 14:00:00 8.8 15 Norte 27 Noroeste 0 893.5 -0.3 70
2018-01-19 13:00:00 8.6 17 Noroeste 27 Noroeste 0 894.2 0.8 68
2018-01-19 12:00:00 7.8 9 Noroeste 17 Noroeste 0 894.2 1.5 70
2018-01-19 11:00:00 5.6 8 Noroeste 11 Noroeste 0 893.8 1.1 76
2018-01-19 10:00:00 0.4 0 Calma 5 Sur 0 893.4 1.2 90
2018-01-19 09:00:00 -0.6 0 Calma 5 Este 0 892.7 0.6 91
2018-01-19 08:00:00 -0.7 2 Este 5 Sur 0 892.7 0.5 90
2018-01-19 07:00:00 -0.6 2 Sudeste 6 Sur 0 892.2 -0.3 89
2018-01-19 06:00:00 -0.8 3 Este 5 Sur 0 892.1 -0.5 90
2018-01-19 05:00:00 -0.5 3 Sur 4 Sur 0 892.2 -0.4 88
2018-01-19 04:00:00 0 0 Calma 5 Sur 0 892.5 -0.4 88
2018-01-19 03:00:00 0.1 2 Sur 5 Este 0 892.6 -0.5 86
2018-01-19 02:00:00 1.2 2 Sudeste 7 Sur 0 892.6 -0.5 82
2018-01-19 01:00:00 1.7 4 Sur 8 Sur 0 892.9 -0.4 79
2018-01-19 00:00:00 1.9 3 Este 6 Sur 0 893.1 0 79
2018-01-18 23:00:00 2.5 4 Sur 9 Este 0 893.1 0.2 77
2018-01-18 22:00:00 3.2 0 Calma 4 Sur 0 893.3 0.7 73
2018-01-18 21:00:00 4.5 0 Calma 6 Sudeste 0 893.1 0.4 74
2018-01-18 20:00:00 7.1 2 Sur 14 Norte 0 892.9 0 67
2018-01-18 19:00:00 8.7 7 Nordeste 12 Norte 0 892.6 -0.6 49
2018-01-18 18:00:00 11.6 6 Norte 13 Norte 0 892.7 -0.8 30
2018-01-18 17:00:00 13.4 8 Noroeste 14 Norte 0 892.9 -1.1 26
2018-01-18 16:00:00 14 8 Norte 18 Noroeste 0 893.2 -1.6 24
2018-01-18 15:00:00 13.9 8 Norte 13 Norte 0 893.5 -2 26
2018-01-18 14:00:00 13.4 3 Sudoeste 6 Sur 0 894 -1.6 29
2018-01-18 13:00:00 10.5 0 Calma 9 Sur 0 894.8 -0.6 37
2018-01-18 12:00:00 7.9 3 Sur 6 Sudoeste 0 895.5 0.3 44
2018-01-18 11:00:00 3.9 4 Sur 10 Sur 0 895.6 0.6 62
2018-01-18 10:00:00 0 4 Sur 8 Sur 0 895.4 0.6 77
2018-01-18 09:00:00 -1.5 2 Sur 6 Sur 0 895.2 0.2 87
2018-01-18 08:00:00 -1.3 3 Sudeste 7 Sudeste 0 895 -0.5 87
2018-01-18 07:00:00 -1.2 2 Sudeste 6 Sudeste 0 894.8 -1.2 87
2018-01-18 06:00:00 -1.3 5 Sur 8 Sudeste 0 895 -1.3 93
2018-01-18 05:00:00 -1.3 2 Sudeste 7 Sudeste 0 895.5 -1.2 91
2018-01-18 04:00:00 -1.2 4 Este 6 Sudeste 0 896 -1.2 92
2018-01-18 03:00:00 -1 3 Sudeste 8 Sur 0 896.3 -1 96
2018-01-18 02:00:00 -0.6 3 Sudeste 4 Sudeste 0 896.7 -0.7 97
2018-01-18 01:00:00 -0.3 3 Este 8 Sudoeste 0 897.2 -0.3 96
2018-01-18 00:00:00 0.1 3 Este 8 Sur 0 897.3 0.1 98
2018-01-17 23:00:00 0.7 3 Sur 5 Sudoeste 0 897.4 0.2 95
2018-01-17 22:00:00 1.4 4 Este 5 Este 0 897.5 0.6 95
2018-01-17 21:00:00 2.2 2 Sudeste 6 Sudeste 0 897.2 0.5 91
2018-01-17 20:00:00 3.4 3 Este 5 Este 0 897.2 0.3 88
2018-01-17 19:00:00 5.4 0 Calma 15 Noroeste 0 896.9 0 82
2018-01-17 18:00:00 7.1 10 Noroeste 17 Norte 0 896.7 -0.4 77
2018-01-17 17:00:00 8.5 11 Noroeste 18 Noroeste 0 896.9 -0.6 64
2018-01-17 16:00:00 8.6 10 Noroeste 21 Noroeste 0 896.9 -1.3 70
2018-01-17 15:00:00 8.2 15 Noroeste 26 Noroeste 0 897.1 -1.5 70
2018-01-17 14:00:00 7.6 13 Noroeste 23 Noroeste 0 897.5 -0.6 77
2018-01-17 13:00:00 6.6 12 Norte 23 Noroeste 0 898.2 0.5 85
2018-01-17 12:00:00 5.6 14 Noroeste 27 Noroeste 0 898.6 1.4 93
2018-01-17 11:00:00 5.4 12 Noroeste 20 Noroeste 0 898.1 0.8 94
2018-01-17 10:00:00 4.5 9 Noroeste 15 Noroeste 0 897.7 0.5 95
2018-01-17 09:00:00 4 10 Noroeste 15 Noroeste 0 897.2 0.2 93
2018-01-17 08:00:00 5 9 Oeste 16 Oeste 0 897.3 0.1 91
2018-01-17 07:00:00 5.2 4 Noroeste 17 Oeste 0 897.2 0 91
2018-01-17 06:00:00 5.4 9 Noroeste 21 Noroeste 0 897 0.1 91
2018-01-17 05:00:00 4.9 9 Oeste 17 Noroeste 0 897.2 -0.7 93
2018-01-17 04:00:00 4.3 5 Oeste 19 Oeste 0 897.2 -1.1 93
2018-01-17 03:00:00 4.7 10 Oeste 20 Sudoeste 0 896.9 -1.6 93
2018-01-17 02:00:00 3.8 5 Oeste 14 Oeste 0 897.9 -0.2 95
2018-01-17 01:00:00 4.6 8 Oeste 14 Oeste 0 898.3 0.3 95
2018-01-17 00:00:00 5.6 6 Noroeste 24 Oeste 0 898.5 1.1 90
2018-01-16 23:00:00 4.9 14 Oeste 26 Oeste 0 898.1 0.5 98
2018-01-16 22:00:00 3.7 6 Este 11 Este 0 898 0.4 96
2018-01-16 21:00:00 5.1 5 Este 22 Noroeste 0 897.4 -0.1 96
2018-01-16 20:00:00 6.4 7 Oeste 19 Noroeste 0 897.6 0.1 92
2018-01-16 19:00:00 7.4 12 Noroeste 20 Noroeste 0 897.6 0.2 89
2018-01-16 18:00:00 9 9 Norte 16 Norte 0 897.5 0 83
2018-01-16 17:00:00 10.4 12 Norte 19 Norte 0 897.5 -0.4 77
2018-01-16 16:00:00 11.2 11 Norte 24 Noroeste 0 897.4 -1.4 74
2018-01-16 15:00:00 11 15 Noroeste 24 Noroeste 0 897.5 -1.4 75
2018-01-16 14:00:00 10.8 10 Oeste 27 Noroeste 0 897.9 -1.3 76
2018-01-16 13:00:00 10 18 Noroeste 30 Noroeste 0 898.8 0 77
2018-01-16 12:00:00 10.2 17 Noroeste 27 Noroeste 0 898.9 0.4 73
2018-01-16 11:00:00 9.1 6 Oeste 20 Oeste 0 899.2 1 79
2018-01-16 10:00:00 6.6 13 Oeste 21 Oeste 0 898.8 1 92
2018-01-16 09:00:00 5.8 8 Oeste 19 Oeste 0 898.5 0.6 94
2018-01-16 08:00:00 6.1 9 Oeste 23 Oeste 0 898.2 0.4 92
2018-01-16 07:00:00 5.7 6 Sudoeste 19 Sudoeste 0 897.8 0 96
2018-01-16 06:00:00 5 8 Sur 15 Oeste 0 897.9 0.2 96
2018-01-16 05:00:00 5 6 Oeste 15 Sudoeste 0 897.8 0.1 96
2018-01-16 04:00:00 5.3 10 Sudoeste 21 Oeste 0 897.8 -0.3 94
2018-01-16 03:00:00 4.9 4 Oeste 8 Sur 0 897.7 -0.7 94
2018-01-16 02:00:00 5.1 5 Sur 17 Sur 0 897.7 -0.1 82
2018-01-16 01:00:00 5 8 Sur 17 Sudeste 0 898.1 0.7 68
2018-01-16 00:00:00 3.8 3 Sur 13 Sudoeste 0 898.4 1.3 63
2018-01-15 23:00:00 2.8 6 Sudeste 10 Sudeste 0 897.8 0.7 65
2018-01-15 22:00:00 3.2 3 Sur 7 Este 0 897.4 0.7 66
2018-01-15 21:00:00 4.1 3 Sudoeste 13 Sudoeste 0 897.1 0.9 60
2018-01-15 20:00:00 4.2 5 Oeste 12 Oeste 0 897.1 1.4 56
2018-01-15 19:00:00 3.8 5 Oeste 13 Noroeste 0 896.7 1.1 63
2018-01-15 18:00:00 5.1 7 Noroeste 13 Oeste 0 896.2 0.9 58
2018-01-15 17:00:00 6.8 10 Oeste 16 Oeste 0 895.7 -0.4 51
2018-01-15 16:00:00 7.5 8 Oeste 14 Oeste 0 895.6 -0.5 52
2018-01-15 15:00:00 7.2 4 Oeste 9 Oeste 0 895.3 -1.6 55
2018-01-15 14:00:00 6.7 2 Sudoeste 8 Sur 0 896.1 -0.5 54
2018-01-15 13:00:00 5.2 2 Sudoeste 7 Sudeste 0 896.1 0.2 58
2018-01-15 12:00:00 2.9 2 Sudoeste 8 Sur 0 896.9 1.6 66
2018-01-15 11:00:00 0 4 Sudoeste 9 Sudoeste 0 896.6 2.3 80
2018-01-15 10:00:00 -4.2 5 Sur 8 Sur 0 895.9 1.7 96
2018-01-15 09:00:00 -5.2 4 Sur 8 Sur 0 895.3 1.5 97
2018-01-15 08:00:00 -4.9 0 Calma 8 Sur 0 894.3 0.4 95
2018-01-15 07:00:00 -5 3 Sur 6 Sur 0 894.2 0.6 98
2018-01-15 06:00:00 -5.7 3 Este 8 Sudeste 0 893.8 0.8 96
2018-01-15 05:00:00 -5 3 Sudeste 8 Sur 0 893.9 1.2 98
2018-01-15 04:00:00 -4.6 3 Sudeste 6 Sur 0 893.6 0.6 99
2018-01-15 03:00:00 -3.8 2 Sudeste 6 Sur 0 893 0.4 100
2018-01-15 02:00:00 -3.6 3 Este 14 Sudeste 0 892.7 0.2 100
2018-01-15 01:00:00 -3.1 7 Sudeste 10 Sudeste 0 893 1.1 99
2018-01-15 00:00:00 -2.5 3 Sur 8 Sur 0 892.6 1 98
2018-01-14 23:00:00 -1.7 0 Calma 9 Noroeste 0 892.5 1.7 96
2018-01-14 22:00:00 -0.7 2 Norte 10 Nordeste 0 891.9 2 94
2018-01-14 21:00:00 0 8 Norte 18 Norte 0 891.6 2.5 96
2018-01-14 20:00:00 0.4 12 Norte 17 Norte 0 890.8 2.2 97
2018-01-14 19:00:00 0.5 6 Norte 17 Norte 0.2 889.9 1.8 96
2018-01-14 18:00:00 1 9 Noroeste 18 Norte 0 889.1 0.9 91
2018-01-14 17:00:00 1.1 9 Norte 17 Noroeste 0 888.6 0.3 92
2018-01-14 16:00:00 2 7 Noroeste 15 Noroeste 0 888.1 -0.5 78
2018-01-14 15:00:00 2.1 9 Noroeste 14 Noroeste 0 888.2 -0.5 78
2018-01-14 14:00:00 1.7 10 Noroeste 20 Noroeste 0 888.3 -0.3 79
2018-01-14 13:00:00 1.5 11 Noroeste 18 Noroeste 0 888.6 0.5 80
2018-01-14 12:00:00 1.4 11 Noroeste 17 Noroeste 0 888.7 0.8 88
2018-01-14 11:00:00 0.9 8 Noroeste 18 Noroeste 0 888.6 1.1 93
2018-01-14 10:00:00 0.7 8 Noroeste 15 Noroeste 0 888.1 0.9 92
2018-01-14 09:00:00 0.2 8 Noroeste 13 Noroeste 0 887.9 0.6 94
2018-01-14 08:00:00 0.3 3 Oeste 10 Sudoeste 0 887.5 0 96
2018-01-14 07:00:00 0.5 5 Noroeste 10 Oeste 0 887.2 -0.5 92
2018-01-14 06:00:00 0.5 3 Oeste 17 Oeste 0 887.3 -0.4 92
2018-01-14 05:00:00 0.6 9 Noroeste 15 Noroeste 0 887.5 -0.3 90
2018-01-14 04:00:00 0.9 7 Oeste 15 Oeste 0 887.7 -0.4 85
2018-01-14 03:00:00 1 10 Noroeste 20 Noroeste 0 887.7 -0.5 91
2018-01-14 02:00:00 1.3 6 Noroeste 17 Sudoeste 0 887.8 -0.4 92
2018-01-14 01:00:00 1.4 6 Oeste 16 Noroeste 0 888.1 0 87
2018-01-14 00:00:00 1.2 5 Oeste 19 Noroeste 0 888.2 0.4 91
2018-01-13 23:00:00 1 9 Oeste 19 Oeste 0 888.2 1 92
2018-01-13 22:00:00 1.3 7 Noroeste 20 Oeste 0 888.1 1.2 94
2018-01-13 21:00:00 0.8 8 Sur 13 Sur 0 887.8 1.1 93
2018-01-13 20:00:00 0.4 4 Nordeste 21 Sudoeste 0 887.2 1 91
2018-01-13 19:00:00 1.3 9 Oeste 21 Oeste 0 886.9 1 87
2018-01-13 18:00:00 1.9 13 Oeste 23 Oeste 0 886.7 1 86
2018-01-13 17:00:00 1.5 10 Sudoeste 19 Sudoeste 0.2 886.2 0.4 95
2018-01-13 16:00:00 1.8 5 Oeste 8 Oeste 0.8 885.9 -0.5 93
2018-01-13 15:00:00 1.5 3 Sur 22 Sudeste 0.2 885.7 -1.5 92
2018-01-13 14:00:00 1.5 13 Sudeste 24 Sudeste 0.2 885.8 -1 90
2018-01-13 13:00:00 1.3 15 Sudeste 26 Sudeste 0.4 886.4 -0.6 90
2018-01-13 12:00:00 1.7 13 Sudeste 29 Sudeste 0.4 887.2 0 85
2018-01-13 11:00:00 1.5 15 Sudeste 27 Sudeste 0 886.8 -0.8 77
2018-01-13 10:00:00 1 10 Sur 26 Sudeste 0 887 -0.8 80
2018-01-13 09:00:00 0.5 6 Sudeste 15 Sur 0 887.2 -1 75
2018-01-13 08:00:00 0.1 8 Este 10 Este 0 887.6 -0.7 78
2018-01-13 07:00:00 0.8 3 Nordeste 22 Sudeste 0 887.8 -0.8 76
2018-01-13 06:00:00 1.7 11 Sur 22 Sur 0 888.2 -1 71
2018-01-13 05:00:00 1.4 11 Sur 24 Sur 0 888.3 -1.7 72
2018-01-13 04:00:00 2 10 Sudeste 22 Sudeste 0 888.6 -2.2 66
2018-01-13 03:00:00 1.4 10 Sur 21 Sur 0 889.2 -2.3 74
2018-01-13 02:00:00 0.8 8 Sur 18 Sur 0 890 -1.6 80
2018-01-13 01:00:00 0.2 10 Sur 18 Sur 0 890.8 -1.2 85
2018-01-13 00:00:00 -0.4 5 Sur 11 Sudeste 0 891.5 -0.9 86
2018-01-12 23:00:00 -1.1 4 Sur 8 Sudeste 0 891.6 -0.7 89
2018-01-12 22:00:00 0.3 5 Sudeste 8 Sur 0 892 -1 85
2018-01-12 21:00:00 1.9 6 Sudoeste 9 Sur 0 892.4 -0.9 78
2018-01-12 20:00:00 2.2 6 Este 14 Sudeste 0 892.3 -1 74
2018-01-12 19:00:00 2.8 4 Sudeste 10 Sudeste 0 893 -0.1 72
2018-01-12 18:00:00 3.9 2 Este 5 Este 0 893.3 0.1 70
2018-01-12 17:00:00 4.8 0 Calma 7 Sudoeste 0 893.3 -0.4 63
2018-01-12 16:00:00 6.1 4 Sudoeste 9 Sudoeste 0 893.1 -1.2 57
2018-01-12 15:00:00 5.1 6 Sur 10 Sur 0 893.2 -2.3 60
2018-01-12 14:00:00 4.8 5 Sudoeste 10 Sudoeste 0 893.7 -2 61
2018-01-12 13:00:00 3.9 4 Sudeste 9 Sudeste 0 894.3 -1.2 66
2018-01-12 12:00:00 1.4 4 Sudoeste 10 Sudoeste 0 895.5 0.1 70
2018-01-12 11:00:00 0.2 6 Sudeste 9 Sudeste 0 895.7 0.5 76
2018-01-12 10:00:00 -3.3 0 Calma 5 Este 0 895.5 0.4 95
2018-01-12 09:00:00 -5 4 Este 6 Este 0 895.4 0.4 96
2018-01-12 08:00:00 -5.1 3 Sur 8 Sudoeste 0 895.2 0.2 97
2018-01-12 07:00:00 -4.6 6 Sur 9 Sur 0 895.1 -0.3 97
2018-01-12 06:00:00 -4.2 0 Calma 7 Sudeste 0 895 -0.5 96
2018-01-12 05:00:00 -3.6 6 Sudeste 11 Sudeste 0 895 -0.3 93
2018-01-12 04:00:00 -3.5 2 Este 8 Sudoeste 0 895.4 0.1 95
2018-01-12 03:00:00 -3 6 Este 10 Sur 0 895.5 0.1 94
2018-01-12 02:00:00 -1.9 2 Este 14 Oeste 0 895.3 -0.2 89
2018-01-12 01:00:00 -0.4 8 Oeste 21 Noroeste 0 895.3 -0.1 89
2018-01-12 00:00:00 -0.3 13 Noroeste 19 Noroeste 0 895.4 0.3 89
2018-01-11 23:00:00 -0.2 10 Noroeste 17 Sudoeste 0 895.5 0.6 88
2018-01-11 22:00:00 0.6 9 Oeste 19 Oeste 0 895.4 0.9 83
2018-01-11 21:00:00 0.7 7 Oeste 14 Oeste 0 895.1 0.8 83
2018-01-11 20:00:00 0.8 9 Oeste 25 Oeste 0 894.9 1.1 84
2018-01-11 19:00:00 1.4 12 Oeste 24 Oeste 0 894.5 1.3 81
2018-01-11 18:00:00 2.2 12 Oeste 27 Oeste 0 894.3 1.1 79
2018-01-11 17:00:00 3.5 17 Noroeste 32 Noroeste 0 893.8 0.6 72
2018-01-11 16:00:00 4.3 16 Noroeste 33 Oeste 0 893.2 -0.2 71
2018-01-11 15:00:00 3.1 16 Noroeste 33 Noroeste 0 893.2 -0.3 78
2018-01-11 14:00:00 3 19 Noroeste 35 Noroeste 0 893.2 0.3 75
2018-01-11 13:00:00 2.9 21 Noroeste 37 Noroeste 0 893.4 1.2 76
2018-01-11 12:00:00 2.3 25 Noroeste 52 Oeste 0 893.5 2.2 78
2018-01-11 11:00:00 1.8 29 Noroeste 51 Noroeste 0 892.9 2.3 82
2018-01-11 10:00:00 1.2 27 Noroeste 53 Noroeste 0 892.2 1.9 88
2018-01-11 09:00:00 1.1 24 Noroeste 48 Noroeste 0 891.3 1 90
2018-01-11 08:00:00 1.5 31 Noroeste 53 Noroeste 0 890.6 0.1 88
2018-01-11 07:00:00 1.6 24 Noroeste 49 Noroeste 0 890.3 -0.6 88
2018-01-11 06:00:00 1.7 24 Noroeste 49 Noroeste 0 890.3 -0.8 89
2018-01-11 05:00:00 1.8 24 Oeste 45 Noroeste 0 890.5 -1.1 90
2018-01-11 04:00:00 1.7 20 Oeste 38 Oeste 0 890.9 -0.9 92
2018-01-11 03:00:00 1.7 19 Oeste 41 Oeste 0 891.1 -0.7 88
2018-01-11 02:00:00 1 14 Oeste 31 Noroeste 0 891.6 0.4 85
2018-01-11 01:00:00 0.4 12 Sudoeste 21 Sudoeste 0 891.8 1.1 85
2018-01-11 00:00:00 0.8 12 Oeste 27 Oeste 0 891.8 1.4 83
2018-01-10 23:00:00 1 16 Oeste 38 Noroeste 0 891.2 1.1 81
2018-01-10 22:00:00 1.2 19 Noroeste 40 Noroeste 0 890.7 1.4 85
2018-01-10 21:00:00 1.7 23 Oeste 48 Oeste 0 890.4 1.6 83
2018-01-10 20:00:00 2.2 28 Noroeste 48 Oeste 0 890.1 2 84
2018-01-10 19:00:00 3.1 24 Noroeste 47 Oeste 0 889.3 2 86
2018-01-10 18:00:00 4 18 Oeste 42 Oeste 0 888.8 1.9 79
2018-01-10 17:00:00 4.6 14 Oeste 36 Sudoeste 0 888.1 0.2 85
2018-01-10 16:00:00 5.9 17 Oeste 36 Sudoeste 0 887.3 -0.8 75
2018-01-10 15:00:00 6.7 9 Sur 36 Oeste 0 886.9 -1.8 68
2018-01-10 14:00:00 6.1 9 Sudoeste 20 Sudoeste 0 887.9 -1 70
2018-01-10 13:00:00 7.3 6 Sudoeste 17 Sudoeste 0 888.1 -0.8 65
2018-01-10 12:00:00 6 10 Sudoeste 19 Sur 0 888.7 0.4 75
2018-01-10 11:00:00 4.2 6 Sur 14 Sudeste 0 888.9 0.5 82
2018-01-10 10:00:00 3.2 5 Sudoeste 16 Oeste 0 888.9 1 88
2018-01-10 09:00:00 2.6 6 Oeste 13 Oeste 0 888.3 0.7 93
2018-01-10 08:00:00 2.3 4 Noroeste 15 Oeste 0 888.4 1.7 94
2018-01-10 07:00:00 2.6 6 Oeste 17 Noroeste 0 887.9 1.1 93
2018-01-10 06:00:00 2.5 7 Noroeste 15 Noroeste 0 887.6 0.8 94
2018-01-10 05:00:00 1.9 3 Sudoeste 10 Sur 0 886.7 -0.2 95
2018-01-10 04:00:00 2.3 6 Sur 12 Sur 0 886.8 -0.3 95
2018-01-10 03:00:00 2.2 4 Sur 17 Sur 0 886.8 -0.1 97
2018-01-10 02:00:00 2.7 5 Sur 17 Oeste 0 886.9 0.2 94
2018-01-10 01:00:00 2.2 3 Este 17 Sudeste 0 887.1 1 93
2018-01-10 00:00:00 2.3 12 Sudeste 21 Sudeste 0 886.9 1.1 92
2018-01-09 23:00:00 2.5 13 Sudeste 22 Sudeste 0 886.7 1.1 91
2018-01-09 22:00:00 2.3 13 Sudeste 29 Sudeste 0 886.1 0.8 92
2018-01-09 21:00:00 2.2 20 Sudeste 36 Sudeste 0 885.8 0.8 90
2018-01-09 20:00:00 1.8 20 Sudeste 32 Sudeste 0 885.6 0.6 91
2018-01-09 19:00:00 1.8 16 Sudeste 33 Sudeste 0 885.3 1 91
2018-01-09 18:00:00 1.9 15 Sudeste 36 Sur 0 885 0.5 89
2018-01-09 17:00:00 2 15 Sudeste 33 Sudeste 0 885 0.2 86
2018-01-09 16:00:00 2.2 17 Sudeste 36 Sur 0 884.3 -1.9 81
2018-01-09 15:00:00 1.8 19 Sudeste 37 Sudeste 0 884.5 -2.2 78
2018-01-09 14:00:00 1.4 18 Sudeste 32 Sudeste 0 884.8 -1.7 78
2018-01-09 13:00:00 0.6 11 Sudeste 22 Sudeste 0 886.2 0.8 72
2018-01-09 12:00:00 -0.3 12 Sudeste 26 Sudeste 0 886.7 1.7 71
2018-01-09 11:00:00 -3.1 9 Sudeste 17 Sudeste 0 886.5 1 79
2018-01-09 10:00:00 -3.5 11 Sur 16 Sur 0 885.4 -0.2 71
2018-01-09 09:00:00 -6.5 7 Sudeste 12 Sudeste 0 885 -0.2 88
2018-01-09 08:00:00 -8.4 3 Sur 6 Sur 0 885.5 0.7 96
2018-01-09 07:00:00 -9.8 4 Sur 11 Sudeste 0 885.6 0.8 95
2018-01-09 06:00:00 -11 3 Sur 12 Sur 0 885.2 -0.2 90
2018-01-09 05:00:00 -10 3 Sudeste 8 Sudeste 0 884.8 -0.6 92
2018-01-09 04:00:00 -9.6 3 Este 7 Sudeste 0 884.8 -0.2 95
2018-01-09 03:00:00 -10.4 4 Sur 11 Sudeste 0 885.4 -0.3 89
2018-01-09 02:00:00 -8.8 6 Sur 11 Sur 0 885.4 0 89
2018-01-09 01:00:00 -8.9 3 Este 9 Sudeste 0 885 0 90
2018-01-09 00:00:00 -8.3 3 Sudeste 8 Sudeste 0 885.7 0.5 88
2018-01-08 23:00:00 -7.3 5 Sudeste 9 Sudeste 0 885.4 0.8 87
2018-01-08 22:00:00 -7 5 Sudeste 9 Sudeste 0 885 0.5 95
2018-01-08 21:00:00 -5.6 5 Sur 9 Sudoeste 0 885.2 1.5 96
2018-01-08 20:00:00 -5 3 Sudeste 6 Sur 0 884.6 1.4 94
2018-01-08 19:00:00 -3.6 3 Sur 8 Sudoeste 0 884.5 1.6 88
2018-01-08 18:00:00 -1 5 Sur 8 Sur 0 883.7 1.3 83
2018-01-08 17:00:00 2.5 4 Sur 8 Sur 0 883.2 0.7 69
2018-01-08 16:00:00 3 4 Sudoeste 8 Sudoeste 0 882.9 0.4 67
2018-01-08 15:00:00 2.2 3 Sudoeste 13 Sur 0 882.4 -0.1 70
2018-01-08 14:00:00 1 5 Sur 11 Sur 0 882.5 0 74
2018-01-08 13:00:00 0.4 6 Sur 10 Sudoeste 0 882.5 0.6 73
2018-01-08 12:00:00 0.1 4 Sudoeste 8 Sudoeste 0 882.5 1.5 76
2018-01-08 11:00:00 -1.5 3 Sudeste 12 Sudeste 0 882.5 2.5 81
2018-01-08 10:00:00 -5.4 0 Calma 8 Norte 0 881.9 2.6 95
2018-01-08 09:00:00 -6 2 Nordeste 6 Nordeste 0 881 1.8 94
2018-01-08 08:00:00 -3.9 4 Sudoeste 11 Sudeste 0 880 1 93
2018-01-08 07:00:00 -3.5 7 Sudeste 15 Sudeste 0 879.3 0.7 94
2018-01-08 06:00:00 -3.2 6 Sudeste 19 Sudeste 0 879.2 1.2 93
2018-01-08 05:00:00 -4.5 4 Sur 15 Sudeste 0 879 1.6 94
2018-01-08 04:00:00 -3.7 7 Sur 13 Sudeste 0 878.6 1.4 93
2018-01-08 03:00:00 -2.5 5 Este 9 Nordeste 0 878 1.2 92
2018-01-08 02:00:00 -1.7 5 Sudeste 24 Sudeste 0 877.4 1.5 93
2018-01-08 01:00:00 -1.3 9 Sudeste 28 Sudeste 0 877.2 1.6 93
2018-01-08 00:00:00 -0.9 16 Sudeste 28 Sudeste 0 876.8 1.4 94
2018-01-07 23:00:00 -0.6 14 Sudeste 31 Sudeste 0 875.9 1.2 97
2018-01-07 22:00:00 -0.9 14 Sudeste 25 Sudeste 0 875.6 1.6 97
2018-01-07 21:00:00 -0.7 9 Este 19 Este 0 875.4 2.2 98
2018-01-07 20:00:00 -1.1 5 Sudeste 12 Este 0 874.7 2.3 99
2018-01-07 19:00:00 -0.7 5 Sudeste 14 Este 0.2 874 2.2 97
2018-01-07 18:00:00 -0.3 8 Sudeste 15 Este 0.6 873.2 2 99
2018-01-07 17:00:00 0 4 Sudeste 7 Sudeste 1 872.4 1.1 98
2018-01-07 16:00:00 0.1 3 Norte 9 Noroeste 0.6 871.8 0.4 98
2018-01-07 15:00:00 0.3 6 Noroeste 18 Noroeste 0 871.2 -0.5 96
2018-01-07 14:00:00 0.4 8 Norte 16 Noroeste 0.2 871.3 0 97
2018-01-07 13:00:00 0 11 Noroeste 22 Noroeste 0.6 871.4 0.7 98
2018-01-07 12:00:00 -0.5 15 Noroeste 26 Noroeste 3.2 871.7 1.3 100
2018-01-07 11:00:00 -1 14 Noroeste 26 Noroeste 0.6 871.3 1.1 100
2018-01-07 10:00:00 -1.2 19 Noroeste 27 Noroeste 0.4 870.7 0.8 100
2018-01-07 09:00:00 -1.1 19 Noroeste 32 Norte 0.8 870.4 0.5 100
2018-01-07 08:00:00 -1.3 14 Norte 32 Noroeste 2 870.2 0 100
2018-01-07 07:00:00 -1.4 20 Noroeste 32 Noroeste 1 869.9 -0.7 100
2018-01-07 06:00:00 -1.5 17 Noroeste 33 Noroeste 2 869.9 -0.7 100
2018-01-07 05:00:00 -1.5 19 Noroeste 35 Noroeste 1 870.2 -0.2 100
2018-01-07 04:00:00 -1.5 21 Noroeste 34 Norte 1.4 870.6 -0.2 100
2018-01-07 03:00:00 -1.5 20 Noroeste 37 Noroeste 0.8 870.6 -0.8 100
2018-01-07 02:00:00 -1.4 19 Noroeste 36 Noroeste 1.2 870.4 -1 100
2018-01-07 01:00:00 -1.4 21 Noroeste 36 Noroeste 0.8 870.8 -0.6 100
2018-01-07 00:00:00 -1.1 21 Noroeste 38 Noroeste 1 871.4 -0.3 100
2018-01-06 23:00:00 -1.1 23 Noroeste 41 Noroeste 1.2 871.4 -0.5 100
2018-01-06 22:00:00 -1.1 27 Noroeste 43 Noroeste 1 871.4 -0.4 100
2018-01-06 21:00:00 -1.1 24 Noroeste 40 Norte 1.6 871.7 0.1 100
2018-01-06 20:00:00 -1 22 Noroeste 40 Noroeste 1 871.9 0.2 100
2018-01-06 19:00:00 -0.9 26 Noroeste 45 Noroeste 0.6 871.8 0.4 100
2018-01-06 18:00:00 -0.8 23 Noroeste 40 Noroeste 1.2 871.6 0.4 100
2018-01-06 17:00:00 -0.7 18 Noroeste 34 Noroeste 1.2 871.7 0.4 100
2018-01-06 16:00:00 -0.6 19 Noroeste 35 Noroeste 1.4 871.4 -0.4 100
2018-01-06 15:00:00 -0.5 19 Noroeste 32 Norte 1.2 871.2 -1.3 99
2018-01-06 14:00:00 -0.2 16 Norte 28 Noroeste 1.2 871.3 -1.4 99
2018-01-06 13:00:00 -0.1 14 Noroeste 25 Norte 1.4 871.8 -0.4 100
2018-01-06 12:00:00 -0.2 16 Noroeste 25 Noroeste 0.6 872.5 0.2 99
2018-01-06 11:00:00 -0.1 13 Norte 22 Noroeste 0.4 872.7 0.3 99
2018-01-06 10:00:00 0.1 13 Noroeste 21 Norte 0 872.2 -0.5 100
2018-01-06 09:00:00 0.1 13 Noroeste 18 Noroeste 0.2 872.3 -0.4 100
2018-01-06 08:00:00 0.2 8 Noroeste 13 Noroeste 0.2 872.4 -0.5 100
2018-01-06 07:00:00 0.1 5 Noroeste 10 Noroeste 1 872.7 -1.3 100
2018-01-06 06:00:00 0.1 6 Norte 12 Norte 0.8 872.7 -1.8 100
2018-01-06 05:00:00 0.3 6 Norte 8 Norte 0.6 872.9 -2.4 100
2018-01-06 04:00:00 0.4 4 Noroeste 5 Noroeste 0.2 874 -2.1 100
2018-01-06 03:00:00 0.3 3 Oeste 5 Noroeste 0.6 874.5 -2.4 100
2018-01-06 02:00:00 0.4 0 Calma 3 Noroeste 0.8 875.3 -2.2 100
2018-01-06 01:00:00 0.4 3 Noroeste 5 Noroeste 1.2 876.1 -1.8 100
2018-01-06 00:00:00 0.5 0 Calma 8 Oeste 1.4 876.9 -1.2 99
2018-01-05 23:00:00 0.6 4 Oeste 6 Oeste 1.8 877.5 -0.3 99
2018-01-05 22:00:00 1 2 Oeste 18 Noroeste 3.4 877.9 -0.3 97
2018-01-05 21:00:00 2.9 12 Oeste 25 Noroeste 3.2 878.1 -0.4 91
2018-01-05 20:00:00 5.6 5 Sur 14 Sudoeste 1.6 877.8 -1.3 92
2018-01-05 19:00:00 6.3 3 Nordeste 15 Sur 0 878.2 -1.4 90
2018-01-05 18:00:00 6.8 4 Sur 21 Sur 0 878.5 -2.1 81
2018-01-05 17:00:00 7.1 10 Sur 29 Sur 0 879.1 -2.9 82
2018-01-05 16:00:00 7.1 15 Sur 33 Sur 0.4 879.6 -3 84
2018-01-05 15:00:00 6.9 8 Sudoeste 22 Sudoeste 0.2 880.6 -2.7 91
2018-01-05 14:00:00 7.5 13 Oeste 26 Oeste 0.6 882 -1.8 90
2018-01-05 13:00:00 8.7 11 Oeste 25 Sur 0 882.6 -1.8 78
2018-01-05 12:00:00 9.8 13 Sur 31 Sur 0 883.3 -1 67
2018-01-05 11:00:00 7.9 10 Sur 28 Sur 0 883.8 -1.3 78
2018-01-05 10:00:00 5.5 17 Sur 27 Sur 0 884.4 -1.7 88
2018-01-05 09:00:00 3.8 10 Sur 21 Sur 0 884.3 -2.3 91
2018-01-05 08:00:00 2.5 8 Sudeste 17 Sudeste 0 885.1 -2.6 96
2018-01-05 07:00:00 2.5 6 Este 9 Este 0 886.1 -2 98
2018-01-05 06:00:00 2.4 7 Sudeste 14 Sur 0 886.6 -2.6 98
2018-01-05 05:00:00 2.4 6 Este 9 Este 0 887.7 -2.6 99
2018-01-05 04:00:00 2.7 2 Este 6 Este 0 888.1 -3.4 95
2018-01-05 03:00:00 3.4 3 Este 8 Este 0 889.2 -3.1 96
2018-01-05 02:00:00 3.6 3 Este 5 Este 0 890.3 -2.8 94
2018-01-05 01:00:00 5 3 Sur 12 Sudeste 0 891.5 -2.3 90
2018-01-05 00:00:00 5.5 5 Sudeste 11 Sudeste 0 892.3 -1.9 89
2018-01-04 23:00:00 6.3 4 Sudoeste 10 Sudeste 0 893.1 -1.5 86
2018-01-04 22:00:00 6 2 Noroeste 10 Sudeste 0 893.8 -0.9 87
2018-01-04 21:00:00 6.9 5 Sudeste 10 Sudeste 0 894.2 -1.2 82
2018-01-04 20:00:00 7.6 3 Sudeste 9 Noroeste 0 894.6 -1.2 81
2018-01-04 19:00:00 8.2 3 Sudeste 18 Noroeste 0 894.7 -1.1 79
2018-01-04 18:00:00 9.1 14 Noroeste 32 Oeste 0 895.4 -0.4 75
2018-01-04 17:00:00 10.4 19 Noroeste 32 Noroeste 0 895.8 -0.7 68
2018-01-04 16:00:00 11.4 22 Noroeste 35 Noroeste 0 895.8 -2.3 66
2018-01-04 15:00:00 12.4 17 Noroeste 27 Noroeste 0 895.8 -3 61
2018-01-04 14:00:00 12.2 15 Noroeste 29 Oeste 0 896.5 -2.4 62
2018-01-04 13:00:00 10.6 19 Noroeste 35 Noroeste 0 898.1 -0.7 71
2018-01-04 12:00:00 11 17 Noroeste 28 Noroeste 0 898.8 -0.1 70
2018-01-04 11:00:00 10.6 7 Oeste 15 Oeste 0 898.9 0.1 74
2018-01-04 10:00:00 8.9 3 Oeste 17 Noroeste 0 898.8 -0.3 88
2018-01-04 09:00:00 8.5 8 Noroeste 22 Noroeste 0 898.9 -0.6 90
2018-01-04 08:00:00 7.8 7 Noroeste 13 Noroeste 0 898.8 -1.1 90
2018-01-04 07:00:00 8.5 12 Noroeste 22 Noroeste 0 899.1 -1.2 88
2018-01-04 06:00:00 9.1 9 Noroeste 17 Noroeste 0 899.5 -1 88
2018-01-04 05:00:00 9.5 6 Oeste 18 Oeste 0 899.9 -1.2 85
2018-01-04 04:00:00 9.8 8 Noroeste 18 Noroeste 0 900.3 -1.1 83
2018-01-04 03:00:00 9.9 11 Oeste 23 Noroeste 0 900.5 -1.3 83
2018-01-04 02:00:00 10 12 Oeste 25 Oeste 0 901.1 -0.8 84
2018-01-04 01:00:00 10.3 10 Oeste 23 Oeste 0 901.4 -0.6 85
2018-01-04 00:00:00 10.2 10 Oeste 18 Noroeste 0 901.8 -0.3 85
2018-01-03 23:00:00 10.4 10 Oeste 21 Oeste 0 901.9 -0.3 84
2018-01-03 22:00:00 10.6 9 Oeste 19 Oeste 0 902 -0.1 84
2018-01-03 21:00:00 10.6 13 Oeste 22 Noroeste 0 902.1 0.7 84
2018-01-03 20:00:00 10.5 10 Noroeste 15 Noroeste 0 902.2 -0.1 84
2018-01-03 19:00:00 10.5 8 Norte 20 Oeste 0 902.1 0.3 81
2018-01-03 18:00:00 11.4 12 Oeste 28 Noroeste 0 901.4 -0.5 77
2018-01-03 17:00:00 12 15 Noroeste 27 Noroeste 0 902.3 -0.1 77
2018-01-03 16:00:00 13.1 18 Noroeste 34 Noroeste 0 901.8 -1.9 71
2018-01-03 15:00:00 14.7 17 Noroeste 33 Noroeste 0 901.9 -2.1 63
2018-01-03 14:00:00 13.5 13 Oeste 30 Oeste 0 902.4 -1.4 72
2018-01-03 13:00:00 12.1 17 Oeste 31 Oeste 0 903.7 0.5 79
2018-01-03 12:00:00 11.2 18 Noroeste 28 Noroeste 0 904 1.3 84
2018-01-03 11:00:00 10.3 6 Oeste 17 Oeste 0 903.8 1.3 88
2018-01-03 10:00:00 9.5 4 Oeste 18 Sudoeste 0 903.2 0.9 90
2018-01-03 09:00:00 8.7 6 Sudoeste 16 Oeste 0 902.7 0.6 93
2018-01-03 08:00:00 8.9 5 Oeste 20 Oeste 0 902.5 -0.2 92
2018-01-03 07:00:00 8.9 9 Noroeste 26 Oeste 0 902.3 -0.4 92
2018-01-03 06:00:00 9.5 12 Oeste 26 Oeste 0 902.1 -0.5 87
2018-01-03 05:00:00 9.5 5 Noroeste 22 Oeste 0 902.7 0.3 87
2018-01-03 04:00:00 9.9 17 Oeste 27 Oeste 0 902.7 0.3 87
2018-01-03 03:00:00 9.5 17 Noroeste 30 Oeste 0 902.6 0 90
2018-01-03 02:00:00 9.5 10 Noroeste 19 Noroeste 0 902.4 -0.3 91
2018-01-03 01:00:00 9.1 8 Oeste 28 Noroeste 0 902.4 -0.6 91
2018-01-03 00:00:00 9.3 16 Oeste 32 Oeste 0 902.6 -0.1 90
2018-01-02 23:00:00 9.5 14 Oeste 28 Oeste 0 902.7 0.1 90
2018-01-02 22:00:00 9.5 12 Oeste 24 Oeste 0 903 0.7 89
2018-01-02 21:00:00 9.9 12 Oeste 25 Oeste 0 902.7 0.7 89
2018-01-02 20:00:00 9.9 8 Oeste 22 Sudoeste 0 902.6 0.5 89
2018-01-02 19:00:00 9.8 11 Sudoeste 22 Oeste 0 902.3 0.3 89
2018-01-02 18:00:00 9.7 6 Sudoeste 20 Oeste 0 902 0.2 88
2018-01-02 17:00:00 10 9 Oeste 33 Noroeste 0 902.1 0.2 85
2018-01-02 16:00:00 10.4 23 Noroeste 40 Noroeste 0 902 -0.3 82
2018-01-02 15:00:00 11.1 15 Noroeste 32 Noroeste 0 901.8 -1.2 75
2018-01-02 14:00:00 11.1 14 Oeste 35 Oeste 0 901.9 -0.6 71
2018-01-02 13:00:00 10.6 17 Noroeste 30 Noroeste 0 902.3 0.2 70
2018-01-02 12:00:00 10.2 18 Noroeste 29 Noroeste 0 903 1.4 69
2018-01-02 11:00:00 8.4 9 Oeste 18 Oeste 0 902.5 0.9 73
2018-01-02 10:00:00 6.2 9 Oeste 20 Oeste 0 902.1 0.7 79
2018-01-02 09:00:00 5.1 13 Oeste 26 Oeste 0 901.6 0.2 83
2018-01-02 08:00:00 5.2 10 Oeste 23 Oeste 0 901.6 -0.3 82
2018-01-02 07:00:00 5.9 17 Oeste 37 Noroeste 0 901.4 -0.6 80
2018-01-02 06:00:00 6 22 Oeste 34 Noroeste 0 901.4 -0.5 78
2018-01-02 05:00:00 5.7 15 Oeste 31 Noroeste 0 901.9 -0.1 77
2018-01-02 04:00:00 5.2 13 Noroeste 28 Noroeste 0 902 0.1 80
2018-01-02 03:00:00 5 14 Noroeste 31 Noroeste 0 901.9 0 82
2018-01-02 02:00:00 4.5 15 Oeste 28 Oeste 0 902 0.2 85
2018-01-02 01:00:00 4.5 9 Noroeste 25 Oeste 0 901.9 0.1 84
2018-01-02 00:00:00 5.4 12 Oeste 27 Oeste 0 901.9 0.5 81
2018-01-01 23:00:00 6.1 15 Oeste 30 Oeste 0 901.8 0.5 79
2018-01-01 22:00:00 6.3 12 Oeste 39 Oeste 0 901.8 1.1 81
2018-01-01 21:00:00 6.1 12 Sudoeste 23 Sudoeste 0 901.4 0.7 88
2018-01-01 20:00:00 6.6 12 Sudoeste 34 Sudoeste 0 901.3 0.9 87
2018-01-01 19:00:00 6.9 18 Oeste 39 Sudoeste 0 900.7 0.4 84
2018-01-01 18:00:00 6.8 14 Oeste 39 Noroeste 0 900.7 0.4 85
2018-01-01 17:00:00 7.3 20 Oeste 35 Oeste 0 900.4 -0.4 80
2018-01-01 16:00:00 7.4 15 Oeste 36 Oeste 0 900.3 -1.2 76
2018-01-01 15:00:00 7.9 15 Oeste 32 Oeste 0 900.3 -1.4 70
2018-01-01 14:00:00 7.7 14 Sudoeste 30 Sudoeste 0 900.8 -1.2 64
2018-01-01 13:00:00 6.9 18 Oeste 41 Oeste 0 901.5 0.1 60
2018-01-01 12:00:00 7.3 19 Oeste 35 Noroeste 0 901.7 1 42
2018-01-01 11:00:00 6.2 18 Noroeste 28 Noroeste 0 902 1.5 38
2018-01-01 10:00:00 3.7 9 Oeste 19 Oeste 0 901.4 0.7 40
2018-01-01 09:00:00 0.5 4 Oeste 10 Sur 0 900.7 0.1 63
2018-01-01 08:00:00 1.3 6 Sur 11 Sur 0 900.5 0 65
2018-01-01 07:00:00 1.8 5 Sur 18 Oeste 0 900.7 -0.4 64
2018-01-01 06:00:00 0.8 6 Sudoeste 13 Oeste 0 900.6 -0.2 69
2018-01-01 05:00:00 1.6 9 Oeste 15 Oeste 0 900.5 0 71
2018-01-01 04:00:00 1.5 5 Sudoeste 14 Sudoeste 0 901.1 0.3 78
2018-01-01 03:00:00 2.1 11 Sudoeste 24 Oeste 0 900.8 0.4 80
2018-01-01 02:00:00 2.1 10 Oeste 20 Oeste 0 900.5 0.7 84
2018-01-01 01:00:00 2.2 9 Sur 24 Noroeste 0 900.8 1.6 85
2018-01-01 00:00:00 2.9 15 Oeste 28 Noroeste 0 900.4 2.3 85
2017-12-31 23:00:00 2.7 10 Noroeste 27 Noroeste 0 899.8 3.1 89
2017-12-31 22:00:00 3.2 13 Noroeste 31 Noroeste 0 899.2 3.6 86
2017-12-31 21:00:00 3.9 21 Noroeste 40 Oeste 0 898.1 3.7 83
2017-12-31 20:00:00 4.3 21 Noroeste 46 Noroeste 0 896.7 3 86
2017-12-31 19:00:00 5.2 28 Noroeste 46 Noroeste 0 895.6 4 84
2017-12-31 18:00:00 5.9 20 Oeste 37 Oeste 0 894.4 3.4 82
2017-12-31 17:00:00 6 21 Oeste 75 Oeste 0.2 893.7 1.8 88
2017-12-31 16:00:00 9.9 18 Oeste 37 Oeste 0 891.6 -0.8 70
2017-12-31 15:00:00 10.5 9 Sur 17 Sur 0 891 -2.3 62
2017-12-31 14:00:00 11.3 6 Sudeste 13 Sudoeste 0 891.9 -1.9 58
2017-12-31 13:00:00 9.2 4 Sudeste 14 Sudeste 0 892.4 -0.2 68
2017-12-31 12:00:00 7.9 6 Sudeste 11 Norte 0 893.3 -0.9 74
2017-12-31 11:00:00 4.8 9 Noroeste 24 Sur 0 893.8 0.2 91
2017-12-31 10:00:00 3.9 14 Sudeste 23 Sudeste 0 892.6 -1.2 96
2017-12-31 09:00:00 4.3 4 Este 9 Este 0 894.2 0.3 95
2017-12-31 08:00:00 4.1 5 Este 14 Sudeste 0 893.6 -0.3 98
2017-12-31 07:00:00 4.5 5 Sudeste 8 Norte 0 893.8 -0.8 100
2017-12-31 06:00:00 4.2 3 Norte 8 Oeste 0 893.9 -1.6 100
2017-12-31 05:00:00 4.2 0 Calma 7 Noroeste 0 893.9 -2.2 100
2017-12-31 04:00:00 4.4 3 Sudoeste 5 Sur 0 894.6 -2.3 100
2017-12-31 03:00:00 4.1 4 Este 9 Sudeste 0 895.5 -1.2 100
2017-12-31 02:00:00 3.1 2 Sudeste 10 Sur 0 896.1 -0.7 100
2017-12-31 01:00:00 2.8 3 Sur 5 Nordeste 0 896.9 -0.4 100